sensor_id;sensor_type;location;lat;lon;timestamp;pressure;altitude;pressure_sealevel;temperature
48894;BMP280;34710;35.798;139.446;2022-12-07T00:01:46;100759.55;;;19.50
48894;BMP280;34710;35.798;139.446;2022-12-07T00:04:19;100768.53;;;19.35
48894;BMP280;34710;35.798;139.446;2022-12-07T00:06:51;100765.78;;;19.38
48894;BMP280;34710;35.798;139.446;2022-12-07T00:09:21;100769.38;;;19.72
48894;BMP280;34710;35.798;139.446;2022-12-07T00:11:51;100771.80;;;20.16
48894;BMP280;34710;35.798;139.446;2022-12-07T00:14:20;100773.31;;;20.66
48894;BMP280;34710;35.798;139.446;2022-12-07T00:16:51;100768.28;;;21.37
48894;BMP280;34710;35.798;139.446;2022-12-07T00:19:20;100766.00;;;22.16
48894;BMP280;34710;35.798;139.446;2022-12-07T00:21:50;100776.86;;;21.80
48894;BMP280;34710;35.798;139.446;2022-12-07T00:24:19;100775.71;;;22.49
48894;BMP280;34710;35.798;139.446;2022-12-07T00:26:48;100777.99;;;22.87
48894;BMP280;34710;35.798;139.446;2022-12-07T00:29:20;100779.39;;;23.45
48894;BMP280;34710;35.798;139.446;2022-12-07T00:31:50;100771.23;;;23.66
48894;BMP280;34710;35.798;139.446;2022-12-07T00:34:21;100764.38;;;23.84
48894;BMP280;34710;35.798;139.446;2022-12-07T00:36:50;100759.31;;;24.27
48894;BMP280;34710;35.798;139.446;2022-12-07T00:39:19;100759.38;;;24.83
48894;BMP280;34710;35.798;139.446;2022-12-07T00:41:48;100763.75;;;25.36
48894;BMP280;34710;35.798;139.446;2022-12-07T00:44:18;100759.74;;;25.76
48894;BMP280;34710;35.798;139.446;2022-12-07T00:46:47;100754.21;;;26.01
48894;BMP280;34710;35.798;139.446;2022-12-07T00:49:17;100749.54;;;26.25
48894;BMP280;34710;35.798;139.446;2022-12-07T00:51:49;100744.17;;;26.69
48894;BMP280;34710;35.798;139.446;2022-12-07T00:54:17;100739.87;;;27.19
48894;BMP280;34710;35.798;139.446;2022-12-07T00:56:47;100738.46;;;26.83
48894;BMP280;34710;35.798;139.446;2022-12-07T00:59:16;100733.27;;;27.47
48894;BMP280;34710;35.798;139.446;2022-12-07T01:01:46;100727.37;;;27.63
48894;BMP280;34710;35.798;139.446;2022-12-07T01:04:15;100724.46;;;28.43
48894;BMP280;34710;35.798;139.446;2022-12-07T01:06:45;100720.36;;;28.40
48894;BMP280;34710;35.798;139.446;2022-12-07T01:09:14;100715.31;;;28.46
48894;BMP280;34710;35.798;139.446;2022-12-07T01:11:43;100717.06;;;28.36
48894;BMP280;34710;35.798;139.446;2022-12-07T01:14:13;100717.66;;;28.87
48894;BMP280;34710;35.798;139.446;2022-12-07T01:16:42;100718.20;;;28.90
48894;BMP280;34710;35.798;139.446;2022-12-07T01:19:12;100715.04;;;29.42
48894;BMP280;34710;35.798;139.446;2022-12-07T01:21:41;100712.54;;;29.35
48894;BMP280;34710;35.798;139.446;2022-12-07T01:24:12;100709.14;;;29.69
48894;BMP280;34710;35.798;139.446;2022-12-07T01:26:41;100705.21;;;30.07
48894;BMP280;34710;35.798;139.446;2022-12-07T01:29:10;100702.10;;;30.11
48894;BMP280;34710;35.798;139.446;2022-12-07T01:31:40;100700.04;;;29.61
48894;BMP280;34710;35.798;139.446;2022-12-07T01:34:09;100694.71;;;29.81
48894;BMP280;34710;35.798;139.446;2022-12-07T01:36:38;100694.25;;;29.90
48894;BMP280;34710;35.798;139.446;2022-12-07T01:39:09;100690.92;;;29.61
48894;BMP280;34710;35.798;139.446;2022-12-07T01:41:40;100687.16;;;30.05
48894;BMP280;34710;35.798;139.446;2022-12-07T01:44:14;100688.77;;;29.70
48894;BMP280;34710;35.798;139.446;2022-12-07T01:46:45;100686.17;;;30.19
48894;BMP280;34710;35.798;139.446;2022-12-07T01:49:18;100684.13;;;30.61
48894;BMP280;34710;35.798;139.446;2022-12-07T01:51:50;100675.88;;;30.33
48894;BMP280;34710;35.798;139.446;2022-12-07T01:54:21;100671.00;;;30.48
48894;BMP280;34710;35.798;139.446;2022-12-07T01:56:53;100666.04;;;30.82
48894;BMP280;34710;35.798;139.446;2022-12-07T01:59:25;100660.03;;;30.48
48894;BMP280;34710;35.798;139.446;2022-12-07T02:01:56;100656.79;;;30.38
48894;BMP280;34710;35.798;139.446;2022-12-07T02:04:25;100652.39;;;30.51
48894;BMP280;34710;35.798;139.446;2022-12-07T02:06:55;100648.50;;;30.29
48894;BMP280;34710;35.798;139.446;2022-12-07T02:09:26;100641.74;;;30.13
48894;BMP280;34710;35.798;139.446;2022-12-07T02:11:56;100638.79;;;30.10
48894;BMP280;34710;35.798;139.446;2022-12-07T02:14:26;100639.09;;;29.59
48894;BMP280;34710;35.798;139.446;2022-12-07T02:17:07;100634.88;;;28.97
48894;BMP280;34710;35.798;139.446;2022-12-07T02:20:11;100636.45;;;28.85
48894;BMP280;34710;35.798;139.446;2022-12-07T02:23:04;100636.01;;;28.73
48894;BMP280;34710;35.798;139.446;2022-12-07T02:25:57;100634.19;;;28.29
48894;BMP280;34710;35.798;139.446;2022-12-07T02:28:31;100630.46;;;28.00
48894;BMP280;34710;35.798;139.446;2022-12-07T02:31:08;100626.31;;;27.95
48894;BMP280;34710;35.798;139.446;2022-12-07T02:33:44;100618.59;;;27.46
48894;BMP280;34710;35.798;139.446;2022-12-07T02:36:19;100617.00;;;27.02
48894;BMP280;34710;35.798;139.446;2022-12-07T02:38:57;100613.98;;;26.84
48894;BMP280;34710;35.798;139.446;2022-12-07T02:41:31;100608.58;;;26.15
48894;BMP280;34710;35.798;139.446;2022-12-07T02:44:04;100603.02;;;27.20
48894;BMP280;34710;35.798;139.446;2022-12-07T02:46:39;100592.39;;;26.62
48894;BMP280;34710;35.798;139.446;2022-12-07T02:49:11;100589.60;;;24.39
48894;BMP280;34710;35.798;139.446;2022-12-07T02:51:42;100586.90;;;27.54
48894;BMP280;34710;35.798;139.446;2022-12-07T02:54:14;100578.77;;;28.82
48894;BMP280;34710;35.798;139.446;2022-12-07T02:56:48;100576.70;;;29.28
48894;BMP280;34710;35.798;139.446;2022-12-07T02:59:26;100570.45;;;29.56
48894;BMP280;34710;35.798;139.446;2022-12-07T03:02:09;100567.22;;;29.77
48894;BMP280;34710;35.798;139.446;2022-12-07T03:04:52;100562.56;;;29.49
48894;BMP280;34710;35.798;139.446;2022-12-07T03:07:33;100562.34;;;30.28
48894;BMP280;34710;35.798;139.446;2022-12-07T03:10:10;100566.16;;;30.89
48894;BMP280;34710;35.798;139.446;2022-12-07T03:12:49;100565.90;;;30.78
48894;BMP280;34710;35.798;139.446;2022-12-07T03:15:26;100560.60;;;30.82
48894;BMP280;34710;35.798;139.446;2022-12-07T03:17:58;100557.71;;;31.12
48894;BMP280;34710;35.798;139.446;2022-12-07T03:20:28;100561.28;;;30.45
48894;BMP280;34710;35.798;139.446;2022-12-07T03:22:59;100554.35;;;30.64
48894;BMP280;34710;35.798;139.446;2022-12-07T03:25:29;100552.89;;;30.62
48894;BMP280;34710;35.798;139.446;2022-12-07T03:28:00;100550.72;;;30.75
48894;BMP280;34710;35.798;139.446;2022-12-07T03:30:33;100551.30;;;29.71
48894;BMP280;34710;35.798;139.446;2022-12-07T03:33:06;100546.28;;;30.21
48894;BMP280;34710;35.798;139.446;2022-12-07T03:35:40;100543.34;;;29.88
48894;BMP280;34710;35.798;139.446;2022-12-07T03:38:17;100544.57;;;29.64
48894;BMP280;34710;35.798;139.446;2022-12-07T03:40:50;100538.11;;;30.38
48894;BMP280;34710;35.798;139.446;2022-12-07T03:43:22;100538.90;;;29.06
48894;BMP280;34710;35.798;139.446;2022-12-07T03:45:58;100540.17;;;29.57
48894;BMP280;34710;35.798;139.446;2022-12-07T03:48:34;100541.22;;;29.43
48894;BMP280;34710;35.798;139.446;2022-12-07T03:51:09;100538.87;;;29.74
48894;BMP280;34710;35.798;139.446;2022-12-07T03:53:45;100543.38;;;29.58
48894;BMP280;34710;35.798;139.446;2022-12-07T03:56:15;100541.19;;;29.51
48894;BMP280;34710;35.798;139.446;2022-12-07T03:58:45;100531.88;;;29.19
48894;BMP280;34710;35.798;139.446;2022-12-07T04:01:14;100527.23;;;29.56
48894;BMP280;34710;35.798;139.446;2022-12-07T04:03:43;100527.03;;;29.54
48894;BMP280;34710;35.798;139.446;2022-12-07T04:06:13;100525.34;;;29.54
48894;BMP280;34710;35.798;139.446;2022-12-07T04:08:42;100521.25;;;29.37
48894;BMP280;34710;35.798;139.446;2022-12-07T04:11:11;100517.77;;;29.05
48894;BMP280;34710;35.798;139.446;2022-12-07T04:13:41;100516.90;;;28.96
48894;BMP280;34710;35.798;139.446;2022-12-07T04:16:10;100518.92;;;28.59
48894;BMP280;34710;35.798;139.446;2022-12-07T04:18:40;100516.72;;;28.38
48894;BMP280;34710;35.798;139.446;2022-12-07T04:21:09;100516.54;;;27.29
48894;BMP280;34710;35.798;139.446;2022-12-07T04:23:38;100507.36;;;25.00
48894;BMP280;34710;35.798;139.446;2022-12-07T04:26:08;100509.98;;;25.29
48894;BMP280;34710;35.798;139.446;2022-12-07T04:28:37;100504.64;;;24.02
48894;BMP280;34710;35.798;139.446;2022-12-07T04:31:07;100504.60;;;24.12
48894;BMP280;34710;35.798;139.446;2022-12-07T04:33:37;100503.17;;;23.90
48894;BMP280;34710;35.798;139.446;2022-12-07T04:36:06;100503.80;;;24.56
48894;BMP280;34710;35.798;139.446;2022-12-07T04:38:35;100497.92;;;24.72
48894;BMP280;34710;35.798;139.446;2022-12-07T04:41:06;100496.76;;;24.55
48894;BMP280;34710;35.798;139.446;2022-12-07T04:43:36;100498.82;;;24.04
48894;BMP280;34710;35.798;139.446;2022-12-07T04:46:06;100499.32;;;24.50
48894;BMP280;34710;35.798;139.446;2022-12-07T04:48:35;100501.80;;;24.03
48894;BMP280;34710;35.798;139.446;2022-12-07T04:51:05;100509.63;;;23.48
48894;BMP280;34710;35.798;139.446;2022-12-07T04:53:34;100510.00;;;23.19
48894;BMP280;34710;35.798;139.446;2022-12-07T04:56:04;100506.23;;;23.10
48894;BMP280;34710;35.798;139.446;2022-12-07T04:58:33;100508.64;;;22.67
48894;BMP280;34710;35.798;139.446;2022-12-07T05:01:02;100511.78;;;22.36
48894;BMP280;34710;35.798;139.446;2022-12-07T05:03:32;100511.12;;;22.12
48894;BMP280;34710;35.798;139.446;2022-12-07T05:06:02;100510.29;;;22.00
48894;BMP280;34710;35.798;139.446;2022-12-07T05:08:31;100512.70;;;22.27
48894;BMP280;34710;35.798;139.446;2022-12-07T05:11:00;100515.13;;;20.98
48894;BMP280;34710;35.798;139.446;2022-12-07T05:13:30;100514.68;;;20.82
48894;BMP280;34710;35.798;139.446;2022-12-07T05:15:59;100522.22;;;18.36
48894;BMP280;34710;35.798;139.446;2022-12-07T05:18:29;100530.15;;;17.54
48894;BMP280;34710;35.798;139.446;2022-12-07T05:20:58;100531.59;;;19.09
48894;BMP280;34710;35.798;139.446;2022-12-07T05:23:28;100526.77;;;19.33
48894;BMP280;34710;35.798;139.446;2022-12-07T05:25:57;100523.77;;;19.44
48894;BMP280;34710;35.798;139.446;2022-12-07T05:28:27;100519.18;;;19.53
48894;BMP280;34710;35.798;139.446;2022-12-07T05:30:56;100523.32;;;18.24
48894;BMP280;34710;35.798;139.446;2022-12-07T05:33:26;100514.91;;;18.80
48894;BMP280;34710;35.798;139.446;2022-12-07T05:35:55;100511.92;;;19.53
48894;BMP280;34710;35.798;139.446;2022-12-07T05:38:25;100505.32;;;19.68
48894;BMP280;34710;35.798;139.446;2022-12-07T05:40:54;100504.19;;;19.99
48894;BMP280;34710;35.798;139.446;2022-12-07T05:43:23;100501.87;;;20.29
48894;BMP280;34710;35.798;139.446;2022-12-07T05:45:53;100497.45;;;20.31
48894;BMP280;34710;35.798;139.446;2022-12-07T05:48:22;100502.04;;;19.39
48894;BMP280;34710;35.798;139.446;2022-12-07T05:50:52;100507.15;;;19.30
48894;BMP280;34710;35.798;139.446;2022-12-07T05:53:21;100512.97;;;18.32
48894;BMP280;34710;35.798;139.446;2022-12-07T05:55:51;100517.03;;;18.89
48894;BMP280;34710;35.798;139.446;2022-12-07T05:58:20;100522.29;;;19.27
48894;BMP280;34710;35.798;139.446;2022-12-07T06:00:49;100526.88;;;19.06
48894;BMP280;34710;35.798;139.446;2022-12-07T06:03:19;100527.07;;;18.08
48894;BMP280;34710;35.798;139.446;2022-12-07T06:05:48;100532.18;;;16.70
48894;BMP280;34710;35.798;139.446;2022-12-07T06:08:18;100531.98;;;17.90
48894;BMP280;34710;35.798;139.446;2022-12-07T06:10:48;100537.94;;;17.75
48894;BMP280;34710;35.798;139.446;2022-12-07T06:13:18;100537.96;;;18.47
48894;BMP280;34710;35.798;139.446;2022-12-07T06:15:48;100535.52;;;18.44
48894;BMP280;34710;35.798;139.446;2022-12-07T06:18:17;100536.01;;;18.51
48894;BMP280;34710;35.798;139.446;2022-12-07T06:20:47;100538.99;;;17.74
48894;BMP280;34710;35.798;139.446;2022-12-07T06:23:16;100538.32;;;17.44
48894;BMP280;34710;35.798;139.446;2022-12-07T06:25:47;100536.70;;;17.37
48894;BMP280;34710;35.798;139.446;2022-12-07T06:28:16;100538.27;;;17.82
48894;BMP280;34710;35.798;139.446;2022-12-07T06:30:45;100541.98;;;17.08
48894;BMP280;34710;35.798;139.446;2022-12-07T06:33:15;100539.21;;;17.50
48894;BMP280;34710;35.798;139.446;2022-12-07T06:35:44;100546.84;;;17.81
48894;BMP280;34710;35.798;139.446;2022-12-07T06:38:14;100547.50;;;17.77
48894;BMP280;34710;35.798;139.446;2022-12-07T06:40:44;100548.25;;;17.65
48894;BMP280;34710;35.798;139.446;2022-12-07T06:43:14;100550.58;;;17.49
48894;BMP280;34710;35.798;139.446;2022-12-07T06:45:46;100548.31;;;17.20
48894;BMP280;34710;35.798;139.446;2022-12-07T06:48:16;100547.55;;;17.58
48894;BMP280;34710;35.798;139.446;2022-12-07T06:50:46;100549.03;;;17.37
48894;BMP280;34710;35.798;139.446;2022-12-07T06:53:16;100551.31;;;17.41
48894;BMP280;34710;35.798;139.446;2022-12-07T06:55:47;100558.22;;;17.53
48894;BMP280;34710;35.798;139.446;2022-12-07T06:58:18;100564.15;;;17.22
48894;BMP280;34710;35.798;139.446;2022-12-07T07:00:49;100571.44;;;17.26
48894;BMP280;34710;35.798;139.446;2022-12-07T07:03:23;100574.74;;;17.27
48894;BMP280;34710;35.798;139.446;2022-12-07T07:05:53;100574.95;;;17.01
48894;BMP280;34710;35.798;139.446;2022-12-07T07:08:22;100578.05;;;17.47
48894;BMP280;34710;35.798;139.446;2022-12-07T07:10:52;100573.87;;;17.55
48894;BMP280;34710;35.798;139.446;2022-12-07T07:13:24;100572.73;;;17.20
48894;BMP280;34710;35.798;139.446;2022-12-07T07:15:54;100579.60;;;17.50
48894;BMP280;34710;35.798;139.446;2022-12-07T07:18:27;100582.90;;;17.51
48894;BMP280;34710;35.798;139.446;2022-12-07T07:20:57;100582.10;;;17.36
48894;BMP280;34710;35.798;139.446;2022-12-07T07:23:27;100582.51;;;17.45
48894;BMP280;34710;35.798;139.446;2022-12-07T07:25:58;100579.81;;;17.52
48894;BMP280;34710;35.798;139.446;2022-12-07T07:28:28;100581.15;;;17.44
48894;BMP280;34710;35.798;139.446;2022-12-07T07:30:58;100586.57;;;17.47
48894;BMP280;34710;35.798;139.446;2022-12-07T07:33:28;100584.73;;;17.17
48894;BMP280;34710;35.798;139.446;2022-12-07T07:35:57;100583.52;;;17.31
48894;BMP280;34710;35.798;139.446;2022-12-07T07:38:26;100586.86;;;17.16
48894;BMP280;34710;35.798;139.446;2022-12-07T07:40:57;100586.61;;;16.82
48894;BMP280;34710;35.798;139.446;2022-12-07T07:43:27;100590.37;;;16.97
48894;BMP280;34710;35.798;139.446;2022-12-07T07:45:57;100591.52;;;16.84
48894;BMP280;34710;35.798;139.446;2022-12-07T07:48:30;100593.40;;;16.73
48894;BMP280;34710;35.798;139.446;2022-12-07T07:50:59;100592.80;;;16.93
48894;BMP280;34710;35.798;139.446;2022-12-07T07:53:28;100596.46;;;16.53
48894;BMP280;34710;35.798;139.446;2022-12-07T07:55:57;100598.26;;;16.70
48894;BMP280;34710;35.798;139.446;2022-12-07T07:58:28;100595.89;;;16.81
48894;BMP280;34710;35.798;139.446;2022-12-07T08:01:03;100593.60;;;16.47
48894;BMP280;34710;35.798;139.446;2022-12-07T08:03:34;100592.87;;;16.33
48894;BMP280;34710;35.798;139.446;2022-12-07T08:06:04;100597.49;;;16.45
48894;BMP280;34710;35.798;139.446;2022-12-07T08:08:33;100595.05;;;16.62
48894;BMP280;34710;35.798;139.446;2022-12-07T08:11:08;100596.74;;;16.38
48894;BMP280;34710;35.798;139.446;2022-12-07T08:13:37;100597.10;;;16.33
48894;BMP280;34710;35.798;139.446;2022-12-07T08:16:11;100599.51;;;16.13
48894;BMP280;34710;35.798;139.446;2022-12-07T08:18:41;100591.72;;;15.95
48894;BMP280;34710;35.798;139.446;2022-12-07T08:21:13;100591.08;;;16.05
48894;BMP280;34710;35.798;139.446;2022-12-07T08:23:43;100592.49;;;15.81
48894;BMP280;34710;35.798;139.446;2022-12-07T08:26:14;100590.31;;;15.51
48894;BMP280;34710;35.798;139.446;2022-12-07T08:28:44;100588.36;;;15.36
48894;BMP280;34710;35.798;139.446;2022-12-07T08:31:15;100583.76;;;15.61
48894;BMP280;34710;35.798;139.446;2022-12-07T08:33:47;100586.82;;;15.32
48894;BMP280;34710;35.798;139.446;2022-12-07T08:36:17;100591.33;;;15.09
48894;BMP280;34710;35.798;139.446;2022-12-07T08:38:47;100595.51;;;14.86
48894;BMP280;34710;35.798;139.446;2022-12-07T08:41:17;100594.22;;;15.01
48894;BMP280;34710;35.798;139.446;2022-12-07T08:43:46;100595.30;;;15.06
48894;BMP280;34710;35.798;139.446;2022-12-07T08:46:21;100599.77;;;15.02
48894;BMP280;34710;35.798;139.446;2022-12-07T08:48:54;100600.94;;;14.72
48894;BMP280;34710;35.798;139.446;2022-12-07T08:51:26;100593.12;;;14.72
48894;BMP280;34710;35.798;139.446;2022-12-07T08:53:57;100594.29;;;14.66
48894;BMP280;34710;35.798;139.446;2022-12-07T08:56:28;100601.60;;;14.25
48894;BMP280;34710;35.798;139.446;2022-12-07T08:58:58;100602.12;;;14.10
48894;BMP280;34710;35.798;139.446;2022-12-07T09:01:29;100601.92;;;13.62
48894;BMP280;34710;35.798;139.446;2022-12-07T09:04:00;100607.39;;;14.04
48894;BMP280;34710;35.798;139.446;2022-12-07T09:06:29;100612.84;;;13.83
48894;BMP280;34710;35.798;139.446;2022-12-07T09:09:01;100619.68;;;13.98
48894;BMP280;34710;35.798;139.446;2022-12-07T09:11:30;100621.61;;;14.02
48894;BMP280;34710;35.798;139.446;2022-12-07T09:13:59;100617.63;;;14.41
48894;BMP280;34710;35.798;139.446;2022-12-07T09:16:33;100616.24;;;14.13
48894;BMP280;34710;35.798;139.446;2022-12-07T09:19:02;100618.43;;;13.98
48894;BMP280;34710;35.798;139.446;2022-12-07T09:21:32;100619.32;;;13.98
48894;BMP280;34710;35.798;139.446;2022-12-07T09:24:01;100622.71;;;13.69
48894;BMP280;34710;35.798;139.446;2022-12-07T09:26:29;100623.04;;;13.48
48894;BMP280;34710;35.798;139.446;2022-12-07T09:29:00;100619.31;;;13.92
48894;BMP280;34710;35.798;139.446;2022-12-07T09:31:29;100619.91;;;13.29
48894;BMP280;34710;35.798;139.446;2022-12-07T09:34:00;100619.03;;;13.58
48894;BMP280;34710;35.798;139.446;2022-12-07T09:36:30;100620.03;;;13.17
48894;BMP280;34710;35.798;139.446;2022-12-07T09:38:59;100622.70;;;13.66
48894;BMP280;34710;35.798;139.446;2022-12-07T09:41:30;100622.72;;;13.41
48894;BMP280;34710;35.798;139.446;2022-12-07T09:44:09;100622.24;;;13.64
48894;BMP280;34710;35.798;139.446;2022-12-07T09:46:41;100625.29;;;13.64
48894;BMP280;34710;35.798;139.446;2022-12-07T09:49:14;100625.49;;;13.57
48894;BMP280;34710;35.798;139.446;2022-12-07T09:51:46;100628.57;;;13.45
48894;BMP280;34710;35.798;139.446;2022-12-07T09:54:17;100629.64;;;13.33
48894;BMP280;34710;35.798;139.446;2022-12-07T09:56:47;100626.15;;;13.22
48894;BMP280;34710;35.798;139.446;2022-12-07T09:59:18;100632.55;;;13.29
48894;BMP280;34710;35.798;139.446;2022-12-07T10:01:49;100635.02;;;13.15
48894;BMP280;34710;35.798;139.446;2022-12-07T10:04:21;100635.21;;;13.48
48894;BMP280;34710;35.798;139.446;2022-12-07T10:06:51;100633.95;;;12.81
48894;BMP280;34710;35.798;139.446;2022-12-07T10:09:21;100634.67;;;13.08
48894;BMP280;34710;35.798;139.446;2022-12-07T10:12:09;100635.33;;;12.91
48894;BMP280;34710;35.798;139.446;2022-12-07T10:14:51;100632.51;;;12.90
48894;BMP280;34710;35.798;139.446;2022-12-07T10:17:39;100632.79;;;12.77
48894;BMP280;34710;35.798;139.446;2022-12-07T10:20:18;100636.52;;;13.12
48894;BMP280;34710;35.798;139.446;2022-12-07T10:23:08;100637.76;;;12.87
48894;BMP280;34710;35.798;139.446;2022-12-07T10:25:42;100636.68;;;12.68
48894;BMP280;34710;35.798;139.446;2022-12-07T10:28:15;100641.84;;;12.85
48894;BMP280;34710;35.798;139.446;2022-12-07T10:30:52;100642.78;;;12.93
48894;BMP280;34710;35.798;139.446;2022-12-07T10:33:31;100637.70;;;12.55
48894;BMP280;34710;35.798;139.446;2022-12-07T10:36:15;100635.69;;;12.57
48894;BMP280;34710;35.798;139.446;2022-12-07T10:38:47;100635.66;;;12.47
48894;BMP280;34710;35.798;139.446;2022-12-07T10:41:16;100637.69;;;12.12
48894;BMP280;34710;35.798;139.446;2022-12-07T10:43:49;100642.29;;;12.05
48894;BMP280;34710;35.798;139.446;2022-12-07T10:46:34;100638.05;;;12.03
48894;BMP280;34710;35.798;139.446;2022-12-07T14:51:11;100618.90;;;10.01
48894;BMP280;34710;35.798;139.446;2022-12-07T14:53:42;100611.86;;;10.17
48894;BMP280;34710;35.798;139.446;2022-12-07T14:56:13;100609.42;;;10.52
48894;BMP280;34710;35.798;139.446;2022-12-07T14:58:42;100611.42;;;10.87
48894;BMP280;34710;35.798;139.446;2022-12-07T15:01:11;100612.57;;;10.76
48894;BMP280;34710;35.798;139.446;2022-12-07T15:03:40;100614.08;;;10.38
48894;BMP280;34710;35.798;139.446;2022-12-07T15:06:15;100615.04;;;10.18
48894;BMP280;34710;35.798;139.446;2022-12-07T15:08:44;100619.86;;;10.57
48894;BMP280;34710;35.798;139.446;2022-12-07T15:11:14;100618.67;;;10.62
48894;BMP280;34710;35.798;139.446;2022-12-07T15:13:44;100617.58;;;10.28
48894;BMP280;34710;35.798;139.446;2022-12-07T15:16:16;100619.23;;;10.46
48894;BMP280;34710;35.798;139.446;2022-12-07T15:18:48;100625.83;;;10.31
48894;BMP280;34710;35.798;139.446;2022-12-07T15:21:17;100624.55;;;10.41
48894;BMP280;34710;35.798;139.446;2022-12-07T15:23:47;100629.64;;;10.26
48894;BMP280;34710;35.798;139.446;2022-12-07T15:26:16;100626.48;;;9.83
48894;BMP280;34710;35.798;139.446;2022-12-07T15:28:45;100629.95;;;9.64
48894;BMP280;34710;35.798;139.446;2022-12-07T15:31:15;100632.73;;;9.77
48894;BMP280;34710;35.798;139.446;2022-12-07T15:33:45;100635.98;;;9.91
48894;BMP280;34710;35.798;139.446;2022-12-07T15:36:20;100638.04;;;10.05
48894;BMP280;34710;35.798;139.446;2022-12-07T15:38:50;100640.56;;;9.79
48894;BMP280;34710;35.798;139.446;2022-12-07T15:41:19;100641.82;;;9.51
48894;BMP280;34710;35.798;139.446;2022-12-07T15:43:49;100644.75;;;9.88
48894;BMP280;34710;35.798;139.446;2022-12-07T15:46:18;100640.92;;;9.95
48894;BMP280;34710;35.798;139.446;2022-12-07T15:48:48;100644.32;;;9.98
48894;BMP280;34710;35.798;139.446;2022-12-07T15:51:17;100647.69;;;9.81
48894;BMP280;34710;35.798;139.446;2022-12-07T15:53:47;100653.51;;;9.89
48894;BMP280;34710;35.798;139.446;2022-12-07T15:56:16;100643.70;;;9.44
48894;BMP280;34710;35.798;139.446;2022-12-07T15:58:45;100635.76;;;9.25
48894;BMP280;34710;35.798;139.446;2022-12-07T16:01:15;100638.96;;;8.81
48894;BMP280;34710;35.798;139.446;2022-12-07T16:03:45;100654.66;;;9.42
48894;BMP280;34710;35.798;139.446;2022-12-07T16:06:17;100659.65;;;9.35
48894;BMP280;34710;35.798;139.446;2022-12-07T16:08:47;100650.19;;;8.98
48894;BMP280;34710;35.798;139.446;2022-12-07T16:11:16;100640.41;;;7.72
48894;BMP280;34710;35.798;139.446;2022-12-07T16:13:45;100637.92;;;7.42
48894;BMP280;34710;35.798;139.446;2022-12-07T16:16:16;100640.75;;;8.14
48894;BMP280;34710;35.798;139.446;2022-12-07T16:18:47;100644.73;;;8.22
48894;BMP280;34710;35.798;139.446;2022-12-07T16:21:18;100640.29;;;8.41
48894;BMP280;34710;35.798;139.446;2022-12-07T16:23:47;100651.70;;;8.86
48894;BMP280;34710;35.798;139.446;2022-12-07T16:26:17;100646.80;;;9.02
48894;BMP280;34710;35.798;139.446;2022-12-07T16:28:48;100627.24;;;8.89
48894;BMP280;34710;35.798;139.446;2022-12-07T16:31:20;100620.62;;;8.93
48894;BMP280;34710;35.798;139.446;2022-12-07T16:33:51;100620.09;;;8.99
48894;BMP280;34710;35.798;139.446;2022-12-07T16:36:22;100623.42;;;9.22
48894;BMP280;34710;35.798;139.446;2022-12-07T16:38:51;100629.04;;;9.40
48894;BMP280;34710;35.798;139.446;2022-12-07T16:41:20;100631.67;;;9.31
48894;BMP280;34710;35.798;139.446;2022-12-07T16:43:50;100642.13;;;9.23
48894;BMP280;34710;35.798;139.446;2022-12-07T16:46:19;100635.59;;;9.11
48894;BMP280;34710;35.798;139.446;2022-12-07T16:48:49;100632.19;;;9.30
48894;BMP280;34710;35.798;139.446;2022-12-07T16:51:19;100625.60;;;9.14
48894;BMP280;34710;35.798;139.446;2022-12-07T16:53:48;100628.41;;;8.72
48894;BMP280;34710;35.798;139.446;2022-12-07T16:56:17;100621.98;;;8.54
48894;BMP280;34710;35.798;139.446;2022-12-07T16:58:46;100622.63;;;8.61
48894;BMP280;34710;35.798;139.446;2022-12-07T17:01:18;100610.60;;;8.75
48894;BMP280;34710;35.798;139.446;2022-12-07T17:03:47;100614.16;;;8.73
48894;BMP280;34710;35.798;139.446;2022-12-07T17:06:19;100620.70;;;8.98
48894;BMP280;34710;35.798;139.446;2022-12-07T17:08:49;100615.92;;;8.93
48894;BMP280;34710;35.798;139.446;2022-12-07T17:11:20;100611.41;;;8.71
48894;BMP280;34710;35.798;139.446;2022-12-07T17:13:50;100622.59;;;8.73
48894;BMP280;34710;35.798;139.446;2022-12-07T17:16:20;100628.01;;;8.90
48894;BMP280;34710;35.798;139.446;2022-12-07T17:18:49;100628.71;;;8.84
48894;BMP280;34710;35.798;139.446;2022-12-07T17:21:19;100625.66;;;8.65
48894;BMP280;34710;35.798;139.446;2022-12-07T17:23:48;100624.81;;;8.75
48894;BMP280;34710;35.798;139.446;2022-12-07T17:26:19;100624.16;;;8.96
48894;BMP280;34710;35.798;139.446;2022-12-07T17:28:49;100624.64;;;8.82
48894;BMP280;34710;35.798;139.446;2022-12-07T17:31:20;100625.05;;;8.90
48894;BMP280;34710;35.798;139.446;2022-12-07T17:33:51;100626.02;;;8.96
48894;BMP280;34710;35.798;139.446;2022-12-07T17:36:22;100627.43;;;8.93
48894;BMP280;34710;35.798;139.446;2022-12-07T17:38:52;100629.22;;;8.86
48894;BMP280;34710;35.798;139.446;2022-12-07T17:41:23;100624.19;;;8.72
48894;BMP280;34710;35.798;139.446;2022-12-07T17:43:52;100620.64;;;9.06
48894;BMP280;34710;35.798;139.446;2022-12-07T17:46:22;100627.61;;;8.44
48894;BMP280;34710;35.798;139.446;2022-12-07T17:48:53;100628.84;;;8.43
48894;BMP280;34710;35.798;139.446;2022-12-07T17:51:23;100618.44;;;8.51
48894;BMP280;34710;35.798;139.446;2022-12-07T17:53:53;100610.30;;;8.54
48894;BMP280;34710;35.798;139.446;2022-12-07T17:56:22;100620.27;;;8.52
48894;BMP280;34710;35.798;139.446;2022-12-07T17:58:50;100626.99;;;8.74